Time;durP1;ratioP1;P1;durP2;ratioP2;P2;SDS_P1;SDS_P2;PMS_P1;PMS_P2;Temp;Humidity;BMP_temperature;BMP_pressure;BME280_temperature;BME280_humidity;BME280_pressure;Samples;Min_cycle;Max_cycle;Signal;HPM_P1;HPM_P2
2022/12/10 00:00:58;;;;;;;;;;;;;;;4.83;75.69;100412.13;5061620;28;4389;-86
2022/12/10 00:03:24;;;;;;;;;;;;;;;4.89;75.33;100408.69;5050138;28;4225;-85
2022/12/10 00:05:50;;;;;;;;;;;;;;;4.83;75.51;100407.59;5063004;28;4086;-86
2022/12/10 00:08:17;;;;;;;;;;;;;;;4.81;75.40;100417.63;5039860;28;4307;-87
2022/12/10 00:10:43;;;;;;;;;;;;;;;4.83;75.30;100418.28;5046684;28;4216;-84
2022/12/10 00:13:09;;;;;;;;;;;;;;;4.80;75.30;100418.66;5068979;28;4290;-86
2022/12/10 00:15:36;;;;;;;;;;;;;;;4.92;75.03;100425.16;5052262;28;4320;-85
2022/12/10 00:18:02;;;;;;;;;;;;;;;4.99;74.77;100419.91;5055505;28;4416;-85
2022/12/10 00:20:29;;;;;;;;;;;;;;;4.92;74.88;100421.66;5059772;28;3913;-85
2022/12/10 00:22:55;;;;;;;;;;;;;;;4.95;75.41;100423.97;5055886;28;4104;-85
2022/12/10 00:25:21;;;;;;;;;;;;;;;4.92;74.93;100427.84;5065508;28;3877;-84
2022/12/10 00:27:48;;;;;;;;;;;;;;;4.94;75.07;100433.81;5071646;28;3908;-85
2022/12/10 00:30:14;;;;;;;;;;;;;;;4.88;75.12;100431.03;5059091;28;4413;-85
2022/12/10 00:32:41;;;;;;;;;;;;;;;5.00;75.05;100429.59;5067448;28;4156;-85
2022/12/10 00:35:07;;;;;;;;;;;;;;;4.94;74.77;100430.28;5083768;28;4324;-85
2022/12/10 00:37:33;;;;;;;;;;;;;;;4.91;75.25;100430.66;5071021;28;4133;-85
2022/12/10 00:40:00;;;;;;;;;;;;;;;4.97;74.77;100440.59;5072622;28;3525;-85
2022/12/10 00:42:26;;;;;;;;;;;;;;;4.95;74.69;100434.66;5074259;28;3106;-85
2022/12/10 00:44:53;;;;;;;;;;;;;;;4.93;74.78;100434.00;5054322;28;4273;-84
2022/12/10 00:47:19;;;;;;;;;;;;;;;4.94;75.15;100435.63;5067877;28;4347;-85
2022/12/10 00:49:46;;;;;;;;;;;;;;;5.00;74.86;100426.91;5061974;28;4171;-85
2022/12/10 00:52:12;;;;;;;;;;;;;;;5.12;74.43;100441.44;5053365;28;4308;-85
2022/12/10 00:54:38;;;;;;;;;;;;;;;5.01;74.89;100433.91;5081528;28;4388;-84
2022/12/10 00:57:05;;;;;;;;;;;;;;;5.04;74.44;100435.38;5087838;28;4091;-84
2022/12/10 00:59:32;;;;;;;;;;;;;;;5.05;74.42;100440.50;5059174;28;4079;-85
2022/12/10 01:01:58;;;;;;;;;;;;;;;5.03;74.53;100441.69;5051770;28;4309;-85
2022/12/10 01:04:24;;;;;;;;;;;;;;;4.98;74.58;100439.63;5080148;28;4044;-85
2022/12/10 01:06:51;;;;;;;;;;;;;;;4.93;74.88;100439.34;5055736;28;4035;-85
2022/12/10 01:09:17;;;;;;;;;;;;;;;4.99;74.95;100438.59;5054128;28;4138;-85
2022/12/10 01:11:43;;;;;;;;;;;;;;;5.01;74.78;100442.72;5067914;28;4423;-84
2022/12/10 01:14:09;;;;;;;;;;;;;;;4.93;74.90;100436.66;5066499;28;4342;-86
2022/12/10 01:16:36;;;;;;;;;;;;;;;5.01;75.29;100442.72;5066686;28;4409;-85
2022/12/10 01:19:02;;;;;;;;;;;;;;;5.04;75.11;100443.38;5046875;28;4280;-85
2022/12/10 01:21:29;;;;;;;;;;;;;;;4.97;75.08;100446.78;5054462;28;4404;-85
2022/12/10 01:23:55;;;;;;;;;;;;;;;5.04;74.53;100446.06;5054363;28;3601;-85
2022/12/10 01:26:22;;;;;;;;;;;;;;;5.08;74.73;100436.66;5050225;28;4410;-85
2022/12/10 01:28:48;;;;;;;;;;;;;;;5.10;74.66;100440.78;5054846;28;4570;-85
2022/12/10 01:31:14;;;;;;;;;;;;;;;5.15;74.51;100442.91;5048259;28;3600;-83
2022/12/10 01:33:41;;;;;;;;;;;;;;;5.14;74.54;100447.41;5046803;28;4308;-83
2022/12/10 01:36:07;;;;;;;;;;;;;;;5.20;74.37;100446.66;5048898;28;4453;-84
2022/12/10 01:38:33;;;;;;;;;;;;;;;5.12;74.73;100452.13;5050355;28;4360;-84
2022/12/10 01:41:00;;;;;;;;;;;;;;;5.10;74.94;100450.63;5063933;28;3947;-85
2022/12/10 01:43:26;;;;;;;;;;;;;;;5.00;74.98;100457.09;5049232;28;4055;-85
2022/12/10 01:45:52;;;;;;;;;;;;;;;5.05;74.68;100456.53;5066224;28;4423;-84
2022/12/10 01:48:19;;;;;;;;;;;;;;;5.18;74.18;100447.88;5047711;28;4180;-85
2022/12/10 01:50:45;;;;;;;;;;;;;;;5.06;74.49;100449.34;5048691;28;3429;-85
2022/12/10 01:53:11;;;;;;;;;;;;;;;5.16;74.15;100453.38;5062214;28;4263;-87
2022/12/10 01:55:38;;;;;;;;;;;;;;;5.11;74.37;100444.28;5048113;28;4290;-83
2022/12/10 01:58:04;;;;;;;;;;;;;;;5.14;74.22;100449.25;5067671;28;4224;-85
2022/12/10 02:00:30;;;;;;;;;;;;;;;5.03;74.68;100444.38;5062091;28;4205;-85
2022/12/10 02:02:57;;;;;;;;;;;;;;;4.93;75.04;100442.81;5054881;28;4464;-85
2022/12/10 02:05:23;;;;;;;;;;;;;;;5.14;74.62;100444.72;5061119;28;4055;-85
2022/12/10 02:07:49;;;;;;;;;;;;;;;5.15;74.50;100453.59;5046025;28;4436;-85
2022/12/10 02:10:16;;;;;;;;;;;;;;;5.13;74.62;100450.25;5063406;28;4587;-85
2022/12/10 02:12:42;;;;;;;;;;;;;;;5.11;74.80;100441.59;5055850;28;4379;-85
2022/12/10 02:15:08;;;;;;;;;;;;;;;5.10;74.46;100451.47;5074405;28;4286;-83
2022/12/10 02:17:34;;;;;;;;;;;;;;;5.13;74.42;100443.09;5072423;28;4209;-84
2022/12/10 02:20:01;;;;;;;;;;;;;;;5.22;74.25;100454.47;5069030;28;4165;-85
2022/12/10 02:22:27;;;;;;;;;;;;;;;5.10;75.01;100455.97;5052074;28;4399;-85
2022/12/10 02:24:53;;;;;;;;;;;;;;;5.30;74.07;100454.38;5053374;28;4066;-83
2022/12/10 02:27:20;;;;;;;;;;;;;;;5.09;74.38;100456.97;5065502;28;4474;-84
2022/12/10 02:29:46;;;;;;;;;;;;;;;5.13;74.35;100453.75;5046435;28;4321;-83
2022/12/10 02:32:13;;;;;;;;;;;;;;;5.36;73.72;100455.47;5041290;28;3503;-85
2022/12/10 02:34:40;;;;;;;;;;;;;;;5.09;74.53;100455.16;5039930;28;4447;-85
2022/12/10 02:37:06;;;;;;;;;;;;;;;5.19;74.44;100453.00;5064139;28;4506;-85
2022/12/10 02:39:32;;;;;;;;;;;;;;;5.18;74.48;100446.03;5070403;28;3337;-85
2022/12/10 02:41:59;;;;;;;;;;;;;;;5.24;74.26;100450.63;5061547;28;4316;-85
2022/12/10 02:44:25;;;;;;;;;;;;;;;5.15;74.24;100456.25;5042692;28;4332;-85
2022/12/10 02:46:51;;;;;;;;;;;;;;;5.19;74.48;100452.19;5052681;28;3462;-84
2022/12/10 02:49:18;;;;;;;;;;;;;;;5.19;74.30;100449.53;5065494;28;4247;-84
2022/12/10 02:51:44;;;;;;;;;;;;;;;5.30;73.93;100454.38;5068994;28;3427;-85
2022/12/10 02:54:10;;;;;;;;;;;;;;;5.23;74.24;100446.31;5065261;28;4329;-85
2022/12/10 02:56:37;;;;;;;;;;;;;;;5.31;73.92;100447.19;5065475;28;4291;-85
2022/12/10 02:59:03;;;;;;;;;;;;;;;5.20;74.39;100446.66;5071233;28;4419;-85
2022/12/10 03:01:30;;;;;;;;;;;;;;;5.08;74.51;100450.81;5072323;28;4330;-85
2022/12/10 03:03:56;;;;;;;;;;;;;;;5.20;74.18;100448.50;5065843;28;4243;-86
2022/12/10 03:06:22;;;;;;;;;;;;;;;5.21;74.23;100448.31;5065463;28;4297;-85
2022/12/10 03:08:49;;;;;;;;;;;;;;;5.20;74.57;100443.16;5069651;28;4262;-85
2022/12/10 03:11:15;;;;;;;;;;;;;;;5.39;74.05;100447.09;5052298;28;3841;-84
2022/12/10 03:13:41;;;;;;;;;;;;;;;5.31;73.31;100445.34;5067604;28;4158;-85
2022/12/10 03:16:08;;;;;;;;;;;;;;;5.31;74.09;100450.69;5068494;28;4120;-85
2022/12/10 03:18:34;;;;;;;;;;;;;;;5.34;73.67;100449.50;5067923;28;4473;-83
2022/12/10 03:21:00;;;;;;;;;;;;;;;5.21;74.19;100447.50;5057804;28;4489;-85
2022/12/10 03:23:27;;;;;;;;;;;;;;;5.34;73.96;100452.16;5064718;28;4316;-85
2022/12/10 03:25:53;;;;;;;;;;;;;;;5.20;74.06;100453.84;5046964;28;4200;-84
2022/12/10 03:28:20;;;;;;;;;;;;;;;5.30;73.93;100459.72;5053092;28;4001;-83
2022/12/10 03:30:46;;;;;;;;;;;;;;;5.33;74.04;100451.34;5063911;28;4189;-85
2022/12/10 03:33:13;;;;;;;;;;;;;;;5.31;74.16;100457.88;5060292;28;4380;-85
2022/12/10 03:35:39;;;;;;;;;;;;;;;5.28;73.87;100458.25;5053089;28;4658;-84
2022/12/10 03:38:06;;;;;;;;;;;;;;;5.42;73.52;100457.41;5063730;28;4375;-85
2022/12/10 03:40:32;;;;;;;;;;;;;;;5.30;73.80;100458.91;5064143;28;4299;-84
2022/12/10 03:42:58;;;;;;;;;;;;;;;5.23;74.54;100456.97;5051957;28;4358;-84
2022/12/10 03:45:24;;;;;;;;;;;;;;;5.35;74.02;100467.16;5056825;28;3409;-84
2022/12/10 03:47:51;;;;;;;;;;;;;;;5.32;73.80;100454.19;5058819;28;4201;-84
2022/12/10 03:50:17;;;;;;;;;;;;;;;5.42;74.08;100463.56;5054262;28;4393;-84
2022/12/10 03:52:43;;;;;;;;;;;;;;;5.35;73.56;100461.81;5073294;28;4395;-84
2022/12/10 03:55:10;;;;;;;;;;;;;;;5.29;73.77;100451.88;5055782;28;4518;-84
2022/12/10 03:57:36;;;;;;;;;;;;;;;5.43;73.45;100454.53;5073532;28;4311;-83
2022/12/10 04:00:03;;;;;;;;;;;;;;;5.36;73.52;100450.97;5070569;28;4265;-84
2022/12/10 04:02:29;;;;;;;;;;;;;;;5.59;72.92;100455.28;5058899;28;4280;-84
2022/12/10 04:04:55;;;;;;;;;;;;;;;5.40;73.73;100454.06;5068160;28;4185;-84
2022/12/10 04:07:22;;;;;;;;;;;;;;;5.32;73.71;100447.00;5052018;28;3924;-84
2022/12/10 04:09:48;;;;;;;;;;;;;;;5.57;73.17;100449.34;5066186;28;4455;-84
2022/12/10 04:12:14;;;;;;;;;;;;;;;5.32;73.93;100454.19;5069842;28;4213;-84
2022/12/10 04:17:25;;;;;;;;;;;;;;;5.60;72.79;100446.28;5051322;28;4225;-84
2022/12/10 04:19:51;;;;;;;;;;;;;;;5.48;73.31;100445.94;5053400;28;4311;-84
2022/12/10 04:27:54;;;;;;;;;;;;;;;5.46;73.36;100450.66;5053648;28;4454;-84
2022/12/10 04:30:20;;;;;;;;;;;;;;;5.66;73.01;100450.88;5075819;28;4410;-83
2022/12/10 04:32:47;;;;;;;;;;;;;;;5.41;73.82;100453.91;5056212;28;4336;-84
2022/12/10 04:35:13;;;;;;;;;;;;;;;5.52;73.42;100443.72;5053734;28;4169;-83
2022/12/10 04:37:39;;;;;;;;;;;;;;;5.41;73.97;100451.22;5074036;28;4293;-84
2022/12/10 04:40:06;;;;;;;;;;;;;;;5.48;73.88;100451.28;5089857;28;4506;-83
2022/12/10 04:42:32;;;;;;;;;;;;;;;5.37;74.22;100449.09;5053551;28;3958;-83
2022/12/10 04:44:58;;;;;;;;;;;;;;;5.43;73.74;100446.50;5071932;28;4295;-84
2022/12/10 04:47:25;;;;;;;;;;;;;;;5.30;74.46;100456.22;5062270;28;4019;-84
2022/12/10 04:49:51;;;;;;;;;;;;;;;5.40;73.53;100446.06;5057510;28;4169;-82
2022/12/10 04:52:18;;;;;;;;;;;;;;;5.31;73.79;100440.00;5065159;28;4360;-84
2022/12/10 04:54:45;;;;;;;;;;;;;;;5.42;73.64;100439.53;5061832;28;4080;-84
2022/12/10 04:57:11;;;;;;;;;;;;;;;5.55;73.44;100441.50;5039048;28;4346;-83
2022/12/10 04:59:38;;;;;;;;;;;;;;;5.39;73.62;100437.22;5070772;28;4289;-83
2022/12/10 05:02:05;;;;;;;;;;;;;;;5.35;73.65;100435.94;5053216;28;4331;-84
2022/12/10 05:04:31;;;;;;;;;;;;;;;5.54;73.21;100444.38;5040318;28;4262;-84
2022/12/10 05:06:58;;;;;;;;;;;;;;;5.40;73.70;100446.06;5025954;28;4255;-84
2022/12/10 05:09:24;;;;;;;;;;;;;;;5.46;73.89;100447.97;5023685;28;4257;-83
2022/12/10 05:11:50;;;;;;;;;;;;;;;5.29;73.92;100449.22;5045080;28;4267;-84
2022/12/10 05:14:17;;;;;;;;;;;;;;;5.49;73.76;100449.44;5025588;28;4498;-85
2022/12/10 05:16:43;;;;;;;;;;;;;;;5.40;73.66;100441.53;5029062;28;4538;-84
2022/12/10 05:19:09;;;;;;;;;;;;;;;5.44;73.33;100447.31;5053353;28;4287;-82
2022/12/10 05:24:20;;;;;;;;;;;;;;;5.60;72.90;100444.44;5030202;28;4150;-85
2022/12/10 05:26:50;;;;;;;;;;;;;;;5.46;73.34;100440.78;5049897;28;4410;-83
2022/12/10 05:29:17;;;;;;;;;;;;;;;5.52;73.40;100447.22;5046584;28;4200;-84
2022/12/10 05:31:43;;;;;;;;;;;;;;;5.38;74.01;100446.25;5033670;28;4487;-84
2022/12/10 05:34:10;;;;;;;;;;;;;;;5.38;73.52;100442.75;5041916;28;3597;-83
2022/12/10 05:36:36;;;;;;;;;;;;;;;5.51;73.38;100437.56;5037796;28;4183;-82
2022/12/10 05:39:02;;;;;;;;;;;;;;;5.13;73.50;100372.84;5053186;28;4272;-83
2022/12/10 05:41:29;;;;;;;;;;;;;;;5.49;73.74;100444.94;5066712;28;4144;-83
2022/12/10 05:43:55;;;;;;;;;;;;;;;5.40;73.79;100451.41;5047661;28;4375;-83
2022/12/10 05:46:22;;;;;;;;;;;;;;;5.44;73.50;100453.53;5044641;28;4156;-84
2022/12/10 05:48:48;;;;;;;;;;;;;;;5.43;73.63;100451.84;5046060;28;3452;-84
2022/12/10 05:51:15;;;;;;;;;;;;;;;5.54;73.54;100457.72;5060587;28;4200;-83
2022/12/10 05:53:41;;;;;;;;;;;;;;;5.52;73.51;100463.25;5033307;28;4159;-83
2022/12/10 05:56:07;;;;;;;;;;;;;;;5.36;73.91;100466.16;5045119;28;4346;-84
2022/12/10 05:58:34;;;;;;;;;;;;;;;5.52;73.46;100470.44;5033270;28;4034;-82
2022/12/10 06:01:00;;;;;;;;;;;;;;;5.42;73.93;100466.22;5045665;28;3367;-82
2022/12/10 06:03:26;;;;;;;;;;;;;;;5.54;73.35;100465.75;5026722;28;4162;-84
2022/12/10 06:05:53;;;;;;;;;;;;;;;5.60;73.13;100464.97;5048526;28;4022;-84
2022/12/10 06:08:19;;;;;;;;;;;;;;;5.62;72.90;100469.13;5044518;28;4231;-84
2022/12/10 06:10:45;;;;;;;;;;;;;;;5.52;73.04;100467.78;5086313;27;4264;-82
2022/12/10 06:13:11;;;;;;;;;;;;;;;5.58;73.28;100462.50;5063278;28;3505;-82
2022/12/10 06:15:38;;;;;;;;;;;;;;;5.52;73.49;100462.44;5064272;28;4295;-82
2022/12/10 06:18:04;;;;;;;;;;;;;;;5.49;73.99;100468.97;5063119;28;4246;-82
2022/12/10 06:20:30;;;;;;;;;;;;;;;5.59;72.88;100474.84;5066235;28;4276;-85
2022/12/10 06:22:57;;;;;;;;;;;;;;;5.66;72.45;100475.75;5061265;28;4160;-84
2022/12/10 06:25:23;;;;;;;;;;;;;;;5.57;72.91;100476.06;5086844;27;4389;-84
2022/12/10 06:27:49;;;;;;;;;;;;;;;5.45;73.74;100473.03;5084180;27;4004;-83
2022/12/10 06:30:16;;;;;;;;;;;;;;;5.49;73.88;100478.84;5088300;27;4166;-83
2022/12/10 06:32:43;;;;;;;;;;;;;;;5.41;73.58;100479.75;5086625;27;4291;-83
2022/12/10 06:35:09;;;;;;;;;;;;;;;5.50;73.73;100485.81;5095581;27;4202;-83
2022/12/10 06:37:36;;;;;;;;;;;;;;;5.52;73.86;100481.94;5101053;27;3958;-83
2022/12/10 06:40:02;;;;;;;;;;;;;;;5.46;73.83;100490.72;5102651;27;3452;-83
2022/12/10 06:42:28;;;;;;;;;;;;;;;5.50;73.53;100497.34;5081010;27;4125;-83
2022/12/10 06:44:55;;;;;;;;;;;;;;;5.52;73.28;100502.50;5087128;28;3891;-85
2022/12/10 06:47:21;;;;;;;;;;;;;;;5.49;73.71;100505.53;5073227;28;4034;-83
2022/12/10 06:49:47;;;;;;;;;;;;;;;5.55;73.75;100497.59;5086706;27;4308;-83
2022/12/10 06:52:14;;;;;;;;;;;;;;;5.53;73.70;100496.97;5067417;28;3966;-84
2022/12/10 06:54:40;;;;;;;;;;;;;;;5.59;73.26;100498.91;5098833;27;4197;-83
2022/12/10 06:57:06;;;;;;;;;;;;;;;5.55;73.13;100508.28;5074271;28;4138;-83
2022/12/10 06:59:33;;;;;;;;;;;;;;;5.62;72.81;100503.88;5090713;27;3400;-83
2022/12/10 07:01:59;;;;;;;;;;;;;;;5.63;72.81;100510.84;5090863;27;4353;-82
2022/12/10 07:04:25;;;;;;;;;;;;;;;5.59;73.13;100504.25;5085597;27;3504;-83
2022/12/10 07:06:51;;;;;;;;;;;;;;;5.55;73.14;100504.78;5068109;28;4278;-84
2022/12/10 07:09:18;;;;;;;;;;;;;;;5.58;73.04;100515.09;5083552;27;3940;-83
2022/12/10 07:11:44;;;;;;;;;;;;;;;5.47;73.55;100511.91;5103522;27;3891;-84
2022/12/10 07:14:10;;;;;;;;;;;;;;;5.52;73.50;100516.69;5085476;27;4440;-84
2022/12/10 07:16:37;;;;;;;;;;;;;;;5.43;73.69;100521.28;5100683;27;4154;-83
2022/12/10 07:19:03;;;;;;;;;;;;;;;5.44;73.74;100524.78;5077478;28;4097;-83
2022/12/10 07:21:29;;;;;;;;;;;;;;;5.56;73.34;100519.78;5108364;27;3755;-83
2022/12/10 07:23:57;;;;;;;;;;;;;;;5.56;73.10;100522.47;5091502;28;3812;-83
2022/12/10 07:26:24;;;;;;;;;;;;;;;5.53;73.22;100526.38;5078378;28;3935;-83
2022/12/10 07:28:50;;;;;;;;;;;;;;;5.61;72.85;100528.09;5093314;28;3661;-83
2022/12/10 07:31:16;;;;;;;;;;;;;;;5.73;72.05;100523.91;5091332;28;3858;-81
2022/12/10 07:33:42;;;;;;;;;;;;;;;5.54;72.94;100527.19;5112247;27;3783;-83
2022/12/10 07:36:09;;;;;;;;;;;;;;;5.52;73.46;100523.88;5076599;28;3176;-83
2022/12/10 07:38:35;;;;;;;;;;;;;;;5.49;73.29;100526.91;5079296;28;3624;-83
2022/12/10 07:41:01;;;;;;;;;;;;;;;5.49;73.25;100530.41;5074593;28;3775;-82
2022/12/10 07:43:28;;;;;;;;;;;;;;;5.49;72.95;100534.94;5093006;28;4068;-84
2022/12/10 07:45:54;;;;;;;;;;;;;;;5.49;73.84;100521.56;5108385;27;4001;-82
2022/12/10 07:48:21;;;;;;;;;;;;;;;5.53;73.12;100526.38;5098278;28;3855;-83
2022/12/10 07:50:47;;;;;;;;;;;;;;;5.60;72.95;100532.59;5091347;27;4070;-84
2022/12/10 07:53:14;;;;;;;;;;;;;;;5.62;72.80;100527.09;5088083;28;4493;-84
2022/12/10 07:55:40;;;;;;;;;;;;;;;5.55;73.08;100539.53;5068066;28;4034;-84
2022/12/10 07:58:07;;;;;;;;;;;;;;;5.54;73.24;100537.88;5073948;28;4290;-83
2022/12/10 08:00:33;;;;;;;;;;;;;;;5.57;73.16;100546.34;5103497;27;4241;-82
2022/12/10 08:02:59;;;;;;;;;;;;;;;5.46;73.90;100546.81;5097607;28;4366;-84
2022/12/10 08:05:25;;;;;;;;;;;;;;;5.35;74.16;100545.44;5089036;28;4087;-83
2022/12/10 08:07:52;;;;;;;;;;;;;;;5.52;73.78;100543.41;5073930;28;4209;-83
2022/12/10 08:10:18;;;;;;;;;;;;;;;5.54;72.98;100540.56;5073506;28;4268;-83
2022/12/10 08:12:45;;;;;;;;;;;;;;;5.50;73.58;100547.25;5079227;28;4395;-84
2022/12/10 08:15:11;;;;;;;;;;;;;;;5.47;73.45;100543.13;5111116;28;4345;-84
2022/12/10 08:17:38;;;;;;;;;;;;;;;5.48;73.70;100550.13;5109058;28;4338;-84
2022/12/10 08:20:04;;;;;;;;;;;;;;;5.48;73.30;100552.81;5099985;28;4236;-83
2022/12/10 08:22:32;;;;;;;;;;;;;;;5.54;73.15;100546.72;5076092;28;4394;-84
2022/12/10 08:24:59;;;;;;;;;;;;;;;5.60;73.16;100540.63;5099433;28;4405;-83
2022/12/10 08:27:25;;;;;;;;;;;;;;;5.44;73.71;100551.50;5098519;28;4265;-84
2022/12/10 08:29:52;;;;;;;;;;;;;;;5.50;73.42;100548.13;5089258;28;4291;-83
2022/12/10 08:32:18;;;;;;;;;;;;;;;5.55;72.83;100548.38;5112539;28;4280;-83
2022/12/10 08:34:44;;;;;;;;;;;;;;;5.41;73.44;100554.53;5109664;28;4174;-84
2022/12/10 08:37:11;;;;;;;;;;;;;;;5.45;73.68;100558.53;5079905;28;4384;-85
2022/12/10 08:39:37;;;;;;;;;;;;;;;5.52;73.42;100546.06;5077989;28;4233;-83
2022/12/10 08:42:03;;;;;;;;;;;;;;;5.60;72.92;100547.81;5073004;28;4370;-82
2022/12/10 08:44:30;;;;;;;;;;;;;;;5.42;73.65;100556.22;5083442;28;4302;-82
2022/12/10 08:46:56;;;;;;;;;;;;;;;5.45;73.39;100563.88;5078231;28;4158;-82
2022/12/10 08:49:22;;;;;;;;;;;;;;;5.51;72.94;100559.63;5085839;28;4290;-83
2022/12/10 08:51:49;;;;;;;;;;;;;;;5.45;72.97;100546.00;5108336;27;4082;-84
2022/12/10 08:54:15;;;;;;;;;;;;;;;5.54;73.16;100546.72;5102661;28;4190;-81
2022/12/10 08:56:42;;;;;;;;;;;;;;;5.49;73.66;100554.44;5084041;28;4131;-83
2022/12/10 08:59:08;;;;;;;;;;;;;;;5.53;73.58;100560.25;5100465;28;4261;-82
2022/12/10 09:01:35;;;;;;;;;;;;;;;5.61;72.74;100560.16;5102380;28;4261;-85
2022/12/10 09:04:01;;;;;;;;;;;;;;;5.45;73.23;100566.53;5100897;27;4144;-86
2022/12/10 09:06:28;;;;;;;;;;;;;;;5.50;73.26;100569.50;5060574;28;4222;-83
2022/12/10 09:08:54;;;;;;;;;;;;;;;5.61;72.56;100563.63;5048776;28;4112;-83
2022/12/10 09:11:20;;;;;;;;;;;;;;;5.59;72.68;100572.84;5075373;28;3440;-83
2022/12/10 09:13:47;;;;;;;;;;;;;;;5.51;73.27;100570.31;5062322;28;4220;-83
2022/12/10 09:16:13;;;;;;;;;;;;;;;5.47;73.43;100576.03;5048045;28;4240;-82
2022/12/10 09:18:40;;;;;;;;;;;;;;;5.44;73.34;100567.53;5063062;28;4305;-83
2022/12/10 09:21:06;;;;;;;;;;;;;;;5.56;73.08;100573.22;5073539;28;4035;-84
2022/12/10 09:23:32;;;;;;;;;;;;;;;5.51;73.22;100575.66;5064819;28;4421;-84
2022/12/10 09:25:59;;;;;;;;;;;;;;;5.51;73.11;100576.47;5061522;28;4191;-83
2022/12/10 09:28:25;;;;;;;;;;;;;;;5.58;72.83;100582.72;5064270;28;4206;-83
2022/12/10 09:30:52;;;;;;;;;;;;;;;5.49;73.25;100578.50;5049089;28;4358;-83
2022/12/10 09:33:18;;;;;;;;;;;;;;;5.57;72.73;100577.56;5060817;28;4214;-83
2022/12/10 09:35:44;;;;;;;;;;;;;;;5.36;73.64;100578.34;5066175;28;4200;-83
2022/12/10 09:38:10;;;;;;;;;;;;;;;5.50;73.10;100580.19;5046975;28;3974;-84
2022/12/10 09:40:37;;;;;;;;;;;;;;;5.47;72.97;100584.03;5063372;28;3682;-84
2022/12/10 09:43:03;;;;;;;;;;;;;;;5.66;72.82;100585.28;5048906;28;4409;-83
2022/12/10 09:45:29;;;;;;;;;;;;;;;5.56;72.90;100586.59;5060142;28;4013;-84
2022/12/10 09:47:56;;;;;;;;;;;;;;;5.51;73.39;100581.81;5045481;28;3316;-84
2022/12/10 09:50:22;;;;;;;;;;;;;;;5.56;73.70;100582.09;5049711;28;2309;-83
2022/12/10 09:52:50;;;;;;;;;;;;;;;5.49;73.37;100585.69;5079865;28;2960;-84
2022/12/10 09:55:17;;;;;;;;;;;;;;;5.64;73.34;100579.31;5045904;28;2080;-83
2022/12/10 09:57:44;;;;;;;;;;;;;;;5.50;73.47;100579.31;5049514;28;2602;-84
2022/12/10 10:00:10;;;;;;;;;;;;;;;5.52;73.04;100588.00;5053056;28;2196;-84
2022/12/10 10:02:36;;;;;;;;;;;;;;;5.69;72.98;100592.13;5077650;28;2244;-83
2022/12/10 10:05:03;;;;;;;;;;;;;;;5.54;73.45;100585.97;5074133;28;2224;-84
2022/12/10 10:07:29;;;;;;;;;;;;;;;5.45;73.73;100586.06;5045188;28;2327;-84
2022/12/10 10:09:55;;;;;;;;;;;;;;;5.45;73.43;100583.38;5043153;28;2151;-84
2022/12/10 10:12:22;;;;;;;;;;;;;;;5.52;72.93;100582.63;5042245;28;2368;-84
2022/12/10 10:14:48;;;;;;;;;;;;;;;5.47;73.23;100593.88;5068309;28;2469;-84
2022/12/10 10:17:14;;;;;;;;;;;;;;;5.56;73.29;100594.59;5046641;28;2026;-84
2022/12/10 10:19:41;;;;;;;;;;;;;;;5.49;73.35;100604.38;5067692;28;2055;-84
2022/12/10 10:22:07;;;;;;;;;;;;;;;5.70;72.88;100599.09;5067601;28;2186;-84
2022/12/10 10:24:33;;;;;;;;;;;;;;;5.54;73.16;100597.47;5052692;28;2171;-84
2022/12/10 10:27:00;;;;;;;;;;;;;;;5.36;73.55;100597.84;5057290;28;2299;-83
2022/12/10 10:29:26;;;;;;;;;;;;;;;5.85;72.34;100597.25;5044645;28;2066;-83
2022/12/10 10:31:53;;;;;;;;;;;;;;;5.54;73.49;100602.00;5049893;28;4201;-84
2022/12/10 10:34:19;;;;;;;;;;;;;;;5.42;73.74;100597.13;5046080;28;4048;-84
2022/12/10 10:36:46;;;;;;;;;;;;;;;5.58;73.37;100601.44;5061056;28;3350;-83
2022/12/10 10:39:12;;;;;;;;;;;;;;;5.56;73.85;100594.59;5050071;28;3800;-83
2022/12/10 10:41:39;;;;;;;;;;;;;;;5.76;72.58;100598.34;5043652;28;3939;-85
2022/12/10 10:44:06;;;;;;;;;;;;;;;5.55;73.20;100591.09;5041450;28;4400;-84
2022/12/10 10:46:32;;;;;;;;;;;;;;;5.58;73.69;100598.75;5039229;28;4287;-84
2022/12/10 10:48:58;;;;;;;;;;;;;;;5.46;73.76;100594.91;5039469;28;3812;-84
2022/12/10 10:51:24;;;;;;;;;;;;;;;5.61;73.40;100590.38;5050318;28;4194;-83
2022/12/10 10:53:51;;;;;;;;;;;;;;;5.49;74.02;100599.03;5064453;28;4309;-83
2022/12/10 10:56:19;;;;;;;;;;;;;;;5.44;73.91;100594.25;5049448;28;4147;-83
2022/12/10 10:58:46;;;;;;;;;;;;;;;5.52;73.45;100596.81;5045535;28;4368;-83
2022/12/10 11:01:12;;;;;;;;;;;;;;;5.52;73.68;100588.81;5040582;28;4091;-83
2022/12/10 11:03:38;;;;;;;;;;;;;;;5.43;73.94;100601.44;5046703;28;4269;-83
2022/12/10 11:06:05;;;;;;;;;;;;;;;5.45;74.06;100602.09;5055270;28;4346;-85
2022/12/10 11:08:31;;;;;;;;;;;;;;;5.62;73.26;100600.06;5067418;28;4117;-84
2022/12/10 11:11:01;;;;;;;;;;;;;;;5.53;73.70;100595.84;5060204;28;4311;-83
2022/12/10 11:13:28;;;;;;;;;;;;;;;5.67;73.35;100596.81;5064996;28;4160;-83
2022/12/10 11:15:54;;;;;;;;;;;;;;;5.55;73.88;100590.28;5061149;28;4169;-81
2022/12/10 11:18:20;;;;;;;;;;;;;;;5.43;74.24;100600.59;5067694;28;4196;-83
2022/12/10 11:20:47;;;;;;;;;;;;;;;5.77;73.14;100596.53;5063204;28;4237;-85
2022/12/10 11:23:15;;;;;;;;;;;;;;;5.44;73.94;100591.56;5063772;28;4224;-84
2022/12/10 11:25:41;;;;;;;;;;;;;;;5.65;73.06;100597.00;5059351;28;4300;-86
2022/12/10 11:28:07;;;;;;;;;;;;;;;5.55;73.39;100592.97;5062827;28;3421;-86
2022/12/10 11:30:34;;;;;;;;;;;;;;;5.51;73.86;100597.03;5056764;28;4376;-86
2022/12/10 11:33:00;;;;;;;;;;;;;;;5.39;74.25;100596.66;5059572;28;3305;-85
2022/12/10 11:35:27;;;;;;;;;;;;;;;5.42;74.30;100597.13;5064922;28;4277;-86
2022/12/10 11:37:53;;;;;;;;;;;;;;;5.59;73.66;100602.25;5065194;28;3802;-86
2022/12/10 11:40:20;;;;;;;;;;;;;;;5.46;74.06;100597.56;5063037;28;4264;-86
2022/12/10 11:42:46;;;;;;;;;;;;;;;5.49;74.43;100596.38;5060545;28;4169;-86
2022/12/10 11:45:13;;;;;;;;;;;;;;;5.80;72.83;100593.50;5082196;28;3896;-86
2022/12/10 11:47:39;;;;;;;;;;;;;;;5.52;74.60;100602.16;5083365;28;4208;-87
2022/12/10 11:50:08;;;;;;;;;;;;;;;5.40;74.42;100599.13;5058773;28;4178;-86
2022/12/10 11:52:35;;;;;;;;;;;;;;;5.42;74.62;100594.44;5062000;28;4578;-86
2022/12/10 11:55:01;;;;;;;;;;;;;;;5.44;74.26;100603.13;5083268;28;4070;-86
2022/12/10 11:57:27;;;;;;;;;;;;;;;5.56;74.26;100589.25;5080132;28;3514;-86
2022/12/10 11:59:53;;;;;;;;;;;;;;;5.46;74.48;100597.56;5059060;28;3777;-86
2022/12/10 12:02:20;;;;;;;;;;;;;;;5.57;73.95;100591.75;5058395;28;4141;-87
2022/12/10 12:04:46;;;;;;;;;;;;;;;5.49;74.16;100591.03;5076870;28;4090;-86
2022/12/10 12:07:13;;;;;;;;;;;;;;;5.48;74.71;100587.53;5055681;28;4062;-85
2022/12/10 12:09:39;;;;;;;;;;;;;;;5.44;74.44;100587.09;5069390;28;4339;-87
2022/12/10 12:12:05;;;;;;;;;;;;;;;5.42;74.46;100588.28;5049270;28;4522;-86
2022/12/10 12:14:32;;;;;;;;;;;;;;;5.45;74.70;100582.56;5069083;28;3770;-84
2022/12/10 12:16:58;;;;;;;;;;;;;;;5.68;73.81;100585.13;5051867;28;4310;-84
2022/12/10 12:19:24;;;;;;;;;;;;;;;5.45;74.44;100587.91;5045377;28;4718;-83
2022/12/10 12:21:51;;;;;;;;;;;;;;;1.78;52.36;100597.31;5051096;28;4499;-84
2022/12/10 12:24:18;;;;;;;;;;;;;;;3.25;69.85;100591.19;5046197;28;4358;-85
2022/12/10 12:26:45;;;;;;;;;;;;;;;4.52;69.36;100597.16;5079156;28;4443;-86
2022/12/10 12:29:12;;;;;;;;;;;;;;;4.92;69.44;100595.16;5049858;28;4434;-84
2022/12/10 12:31:38;;;;;;;;;;;;;;;5.04;69.40;100596.38;5048735;28;4055;-83
2022/12/10 12:34:06;;;;;;;;;;;;;;;5.22;69.76;100594.16;5069549;28;4476;-85
2022/12/10 12:36:33;;;;;;;;;;;;;;;5.24;70.03;100597.50;5053884;28;4389;-84
2022/12/10 12:39:00;;;;;;;;;;;;;;;5.30;70.42;100593.25;5058092;28;2782;-84
2022/12/10 12:41:27;;;;;;;;;;;;;;;5.37;70.71;100593.34;5094627;28;2375;-85
2022/12/10 12:43:53;;;;;;;;;;;;;;;5.42;71.03;100597.13;5065361;28;2295;-84
2022/12/10 12:46:20;;;;;;;;;;;;;;;5.38;71.77;100592.31;5053208;28;4541;-84
2022/12/10 12:48:46;;;;;;;;;;;;;;;5.47;71.22;100588.53;5063509;28;4098;-83
2022/12/10 12:51:13;;;;;;;;;;;;;;;5.49;71.78;100578.50;5061070;28;3765;-84
2022/12/10 12:53:39;;;;;;;;;;;;;;;5.38;72.20;100589.66;5077955;28;2280;-84
2022/12/10 12:56:06;;;;;;;;;;;;;;;5.32;72.62;100582.38;5057069;28;2465;-83
2022/12/10 12:58:32;;;;;;;;;;;;;;;5.28;72.83;100587.25;5061390;28;2490;-83
2022/12/10 13:00:59;;;;;;;;;;;;;;;5.34;72.92;100577.69;5078156;28;2479;-84
2022/12/10 13:03:26;;;;;;;;;;;;;;;5.31;73.90;100589.56;5063434;28;3557;-84